createdAt,value
2018-11-25T00:00:24.708Z,101214.98
2018-11-25T00:01:26.519Z,101216.45
2018-11-25T00:02:28.283Z,101217.20
2018-11-25T00:03:30.047Z,101218.89
2018-11-25T00:04:31.827Z,101218.50
2018-11-25T00:05:33.588Z,101222.03
2018-11-25T00:06:35.388Z,101217.20
2018-11-25T00:07:38.189Z,101214.60
2018-11-25T00:08:39.947Z,101217.58
2018-11-25T00:09:41.720Z,101218.50
2018-11-25T00:10:43.507Z,101215.74
2018-11-25T00:11:45.303Z,101219.64
2018-11-25T00:12:47.069Z,101210.16
2018-11-25T00:13:48.860Z,101214.06
2018-11-25T00:14:50.626Z,101209.23
2018-11-25T00:15:52.401Z,101208.70
2018-11-25T00:16:54.185Z,101206.09
2018-11-25T00:17:55.951Z,101206.09
2018-11-25T00:18:58.105Z,101210.37
2018-11-25T00:19:59.881Z,101214.82
2018-11-25T00:21:01.653Z,101206.86
2018-11-25T00:22:03.460Z,101212.05
2018-11-25T00:23:05.246Z,101205.55
2018-11-25T00:24:07.074Z,101206.86
2018-11-25T00:25:08.844Z,101208.70
2018-11-25T00:26:10.643Z,101210.92
2018-11-25T00:27:12.442Z,101205.94
2018-11-25T00:28:15.242Z,101210.76
2018-11-25T00:29:17.025Z,101208.16
2018-11-25T00:30:25.449Z,101205.55
2018-11-25T00:31:27.224Z,101207.77
2018-11-25T00:32:29.024Z,101203.71
2018-11-25T00:33:32.092Z,101204.25
2018-11-25T00:34:33.875Z,101204.47
2018-11-25T00:35:35.641Z,101201.87
2018-11-25T00:36:38.284Z,101200.19
2018-11-25T00:37:43.338Z,101202.25
2018-11-25T00:38:41.882Z,101207.08
2018-11-25T00:39:43.705Z,101195.37
2018-11-25T00:40:45.476Z,101204.09
2018-11-25T00:41:47.292Z,101207.61
2018-11-25T00:42:49.109Z,101201.87
2018-11-25T00:43:50.899Z,101202.25
2018-11-25T00:44:52.732Z,101202.25
2018-11-25T00:45:54.662Z,101205.77
2018-11-25T00:46:56.440Z,101207.83
2018-11-25T00:47:58.711Z,101203.55
2018-11-25T00:49:01.738Z,101205.23
2018-11-25T00:50:04.505Z,101200.95
2018-11-25T00:51:07.658Z,101204.47
2018-11-25T00:52:10.614Z,101204.85
2018-11-25T00:53:13.647Z,101201.33
2018-11-25T00:54:16.576Z,101205.23
2018-11-25T00:55:19.495Z,101203.93
2018-11-25T00:56:22.451Z,101205.61
2018-11-25T00:57:25.352Z,101204.31
2018-11-25T00:58:28.678Z,101207.45
2018-11-25T00:59:31.707Z,101209.51
2018-11-25T01:00:34.687Z,101205.98
2018-11-25T01:01:41.886Z,101210.27
2018-11-25T01:02:49.471Z,101214.17
2018-11-25T01:03:51.632Z,101214.17
2018-11-25T01:04:53.397Z,101214.55
2018-11-25T01:05:55.163Z,101213.63
2018-11-25T01:06:57.048Z,101217.15
2018-11-25T01:07:58.844Z,101216.61
2018-11-25T01:09:00.633Z,101216.77
2018-11-25T01:10:02.417Z,101214.17
2018-11-25T01:11:04.260Z,101217.91
2018-11-25T01:12:07.066Z,101214.39
2018-11-25T01:13:08.874Z,101221.05
2018-11-25T01:14:10.721Z,101218.07
2018-11-25T01:15:12.519Z,101219.20
2018-11-25T01:16:14.291Z,101222.19
2018-11-25T01:17:16.049Z,101216.23
2018-11-25T01:18:17.803Z,101217.53
2018-11-25T01:19:20.460Z,101225.33
2018-11-25T01:20:22.232Z,101219.59
2018-11-25T01:21:24.005Z,101220.13
2018-11-25T01:22:25.804Z,101218.67
2018-11-25T01:23:27.579Z,101219.59
2018-11-25T01:24:29.363Z,101219.59
2018-11-25T01:25:31.136Z,101218.29
2018-11-25T01:26:32.885Z,101221.61
2018-11-25T01:27:34.637Z,101223.87
2018-11-25T01:28:36.397Z,101220.15
2018-11-25T01:29:38.307Z,101221.61
2018-11-25T01:30:40.078Z,101214.19
2018-11-25T01:31:41.839Z,101216.41
2018-11-25T01:32:43.610Z,101218.09
2018-11-25T01:33:45.363Z,101218.47
2018-11-25T01:34:47.147Z,101217.55
2018-11-25T01:35:48.919Z,101213.27
2018-11-25T01:36:50.665Z,101213.64
2018-11-25T01:37:52.424Z,101218.30
2018-11-25T01:38:54.191Z,101217.92
2018-11-25T01:39:56.010Z,101216.25
2018-11-25T01:40:57.806Z,101215.33
2018-11-25T01:41:59.571Z,101220.91
2018-11-25T01:43:01.344Z,101217.92
2018-11-25T01:44:03.115Z,101218.47
2018-11-25T01:45:04.903Z,101216.05
2018-11-25T01:46:06.659Z,101210.50
2018-11-25T01:47:08.427Z,101218.84
2018-11-25T01:48:10.218Z,101219.77
2018-11-25T01:49:11.964Z,101215.33
2018-11-25T01:50:13.765Z,101217.92
2018-11-25T01:51:15.535Z,101214.41
2018-11-25T01:52:17.299Z,101214.02
2018-11-25T01:53:20.264Z,101213.45
2018-11-25T01:54:22.020Z,101214.75
2018-11-25T01:55:23.799Z,101216.80
2018-11-25T01:56:25.577Z,101208.08
2018-11-25T01:57:27.383Z,101220.33
2018-11-25T01:58:29.167Z,101212.53
2018-11-25T01:59:30.921Z,101216.80
2018-11-25T02:00:32.712Z,101217.34
2018-11-25T02:01:34.468Z,101220.33
2018-11-25T02:02:36.216Z,101221.62
2018-11-25T02:03:38.334Z,101218.11
2018-11-25T02:04:40.113Z,101218.65
2018-11-25T02:05:41.896Z,101219.41
2018-11-25T02:06:44.058Z,101211.61
2018-11-25T02:07:45.821Z,101214.58
2018-11-25T02:08:47.618Z,101212.91
2018-11-25T02:09:49.416Z,101205.48
2018-11-25T02:10:51.208Z,101204.94
2018-11-25T02:11:52.988Z,101209.77
2018-11-25T02:12:54.779Z,101209.38
2018-11-25T02:13:56.556Z,101201.42
2018-11-25T02:14:58.303Z,101209.38
2018-11-25T02:16:00.084Z,101201.04
2018-11-25T02:17:01.830Z,101208.08
2018-11-25T02:18:03.613Z,101208.08
2018-11-25T02:19:05.397Z,101206.78
2018-11-25T02:20:07.179Z,101202.34
2018-11-25T02:21:10.203Z,101210.69
2018-11-25T02:22:13.696Z,101206.24
2018-11-25T02:23:15.479Z,101205.70
2018-11-25T02:24:17.300Z,101211.44
2018-11-25T02:25:19.139Z,101204.78
2018-11-25T02:26:20.936Z,101207.00
2018-11-25T02:27:22.692Z,101205.70
2018-11-25T02:28:24.473Z,101206.63
2018-11-25T02:29:26.226Z,101213.13
2018-11-25T02:30:27.989Z,101210.90
2018-11-25T02:31:29.764Z,101208.14
2018-11-25T02:32:31.510Z,101211.44
2018-11-25T02:33:33.273Z,101208.30
2018-11-25T02:34:35.028Z,101209.05
2018-11-25T02:35:36.784Z,101205.53
2018-11-25T02:36:38.553Z,101209.05
2018-11-25T02:37:40.354Z,101211.28
2018-11-25T02:38:42.142Z,101202.02
2018-11-25T02:39:43.903Z,101208.52
2018-11-25T02:40:45.672Z,101205.16
2018-11-25T02:41:47.465Z,101206.84
2018-11-25T02:42:49.210Z,101202.77
2018-11-25T02:43:50.984Z,101200.34
2018-11-25T02:44:52.737Z,101195.89
2018-11-25T02:45:54.488Z,101202.94
2018-11-25T02:46:56.259Z,101197.19
2018-11-25T02:47:58.832Z,101193.67
2018-11-25T02:49:00.598Z,101187.17
2018-11-25T02:50:02.354Z,101192.91
2018-11-25T02:51:04.095Z,101197.19
2018-11-25T02:52:05.882Z,101191.07
2018-11-25T02:53:07.628Z,101196.81
2018-11-25T02:54:09.772Z,101196.81
2018-11-25T02:55:11.528Z,101196.27
2018-11-25T02:56:13.559Z,101193.30
2018-11-25T02:57:19.590Z,101194.05
2018-11-25T02:58:21.346Z,101191.45
2018-11-25T02:59:23.090Z,101191.45
2018-11-25T03:00:24.841Z,101184.41
2018-11-25T03:01:26.600Z,101187.01
2018-11-25T03:02:28.388Z,101184.95
2018-11-25T03:03:30.142Z,101183.11
2018-11-25T03:04:31.906Z,101185.70
2018-11-25T03:05:33.666Z,101184.78
2018-11-25T03:06:35.410Z,101188.30
2018-11-25T03:07:37.179Z,101186.09
2018-11-25T03:08:38.945Z,101191.45
2018-11-25T03:09:40.706Z,101181.23
2018-11-25T03:10:42.480Z,101184.41
2018-11-25T03:11:44.238Z,101184.78
2018-11-25T03:12:46.026Z,101182.53
2018-11-25T03:13:47.789Z,101185.13
2018-11-25T03:14:49.552Z,101184.03
2018-11-25T03:15:51.794Z,101179.93
2018-11-25T03:16:53.560Z,101180.31
2018-11-25T03:17:55.343Z,101178.09
2018-11-25T03:18:58.874Z,101175.11
2018-11-25T03:20:00.945Z,101173.43
2018-11-25T03:21:02.716Z,101171.20
2018-11-25T03:22:04.487Z,101173.09
2018-11-25T03:23:06.259Z,101171.20
2018-11-25T03:24:08.011Z,101172.13
2018-11-25T03:25:09.773Z,101175.69
2018-11-25T03:26:11.529Z,101170.83
2018-11-25T03:27:13.331Z,101175.69
2018-11-25T03:28:15.113Z,101175.48
2018-11-25T03:29:18.251Z,101167.30
2018-11-25T03:30:20.030Z,101167.30
2018-11-25T03:31:21.785Z,101168.06
2018-11-25T03:32:23.558Z,101170.66
2018-11-25T03:33:25.342Z,101168.61
2018-11-25T03:34:27.100Z,101167.69
2018-11-25T03:35:28.853Z,101165.47
2018-11-25T03:36:30.598Z,101168.98
2018-11-25T03:37:32.355Z,101167.14
2018-11-25T03:38:34.157Z,101168.06
2018-11-25T03:39:36.011Z,101166.77
2018-11-25T03:40:37.775Z,101167.14
2018-11-25T03:41:39.531Z,101168.06
2018-11-25T03:42:41.314Z,101171.05
2018-11-25T03:43:43.111Z,101173.27
2018-11-25T03:44:44.867Z,101173.27
2018-11-25T03:45:48.348Z,101168.45
2018-11-25T03:46:50.118Z,101169.37
2018-11-25T03:47:51.867Z,101167.52
2018-11-25T03:48:53.656Z,101168.45
2018-11-25T03:49:55.409Z,101174.41
2018-11-25T03:50:58.322Z,101163.63
2018-11-25T03:52:00.077Z,101171.05
2018-11-25T03:53:01.828Z,101168.45
2018-11-25T03:54:03.615Z,101173.27
2018-11-25T03:55:05.371Z,101174.56
2018-11-25T03:56:07.123Z,101166.98
2018-11-25T03:57:08.879Z,101167.91
2018-11-25T03:58:10.627Z,101165.68
2018-11-25T03:59:12.407Z,101167.91
2018-11-25T04:00:14.162Z,101161.78
2018-11-25T04:01:15.916Z,101162.16
2018-11-25T04:02:17.673Z,101166.23
2018-11-25T04:03:19.441Z,101162.70
2018-11-25T04:04:21.229Z,101161.78
2018-11-25T04:05:22.972Z,101165.30
2018-11-25T04:06:24.723Z,101160.86
2018-11-25T04:07:26.480Z,101161.78
2018-11-25T04:08:28.253Z,101161.78
2018-11-25T04:09:30.032Z,101162.16
2018-11-25T04:10:31.795Z,101162.54
2018-11-25T04:11:33.559Z,101159.56
2018-11-25T04:12:35.323Z,101162.70
2018-11-25T04:13:37.073Z,101159.56
2018-11-25T04:14:38.829Z,101159.56
2018-11-25T04:15:40.581Z,101155.66
2018-11-25T04:16:42.338Z,101162.54
2018-11-25T04:17:44.109Z,101161.78
2018-11-25T04:18:45.877Z,101160.86
2018-11-25T04:19:47.647Z,101157.34
2018-11-25T04:20:49.405Z,101160.32
2018-11-25T04:21:51.164Z,101158.64
2018-11-25T04:22:52.919Z,101159.94
2018-11-25T04:23:54.686Z,101160.70
2018-11-25T04:24:56.472Z,101166.44
2018-11-25T04:25:58.225Z,101156.80
2018-11-25T04:27:01.212Z,101155.12
2018-11-25T04:28:03.025Z,101160.32
2018-11-25T04:29:05.701Z,101162.92
2018-11-25T04:30:07.498Z,101156.80
2018-11-25T04:31:09.308Z,101161.63
2018-11-25T04:32:11.052Z,101157.18
2018-11-25T04:33:13.969Z,101165.52
2018-11-25T04:34:15.736Z,101166.81
2018-11-25T04:35:17.523Z,101167.74
2018-11-25T04:36:19.335Z,101171.09
2018-11-25T04:37:21.157Z,101167.58
2018-11-25T04:38:22.911Z,101168.87
2018-11-25T04:39:24.681Z,101168.87
2018-11-25T04:40:26.463Z,101170.17
2018-11-25T04:41:28.215Z,101172.23
2018-11-25T04:42:29.965Z,101169.26
2018-11-25T04:43:31.715Z,101168.50
2018-11-25T04:44:33.482Z,101164.05
2018-11-25T04:45:35.248Z,101168.87
2018-11-25T04:46:37.011Z,101167.03
2018-11-25T04:47:38.778Z,101170.55
2018-11-25T04:48:40.536Z,101165.73
2018-11-25T04:49:42.288Z,101170.55
2018-11-25T04:50:44.076Z,101164.98
2018-11-25T04:51:45.833Z,101171.48
2018-11-25T04:52:48.042Z,101172.40
2018-11-25T04:53:49.789Z,101168.33
2018-11-25T04:54:51.548Z,101177.81
2018-11-25T04:55:53.329Z,101170.94
2018-11-25T04:56:55.080Z,101167.41
2018-11-25T04:57:56.843Z,101173.16
2018-11-25T04:58:58.619Z,101171.09
2018-11-25T05:00:00.398Z,101178.73
2018-11-25T05:01:02.179Z,101166.66
2018-11-25T05:02:03.963Z,101173.16
2018-11-25T05:03:05.739Z,101176.13
2018-11-25T05:04:07.502Z,101172.78
2018-11-25T05:05:09.250Z,101177.05
2018-11-25T05:06:11.029Z,101175.75
2018-11-25T05:07:12.777Z,101182.25
2018-11-25T05:08:14.558Z,101182.25
2018-11-25T05:09:16.319Z,101182.63
2018-11-25T05:10:18.069Z,101182.25
2018-11-25T05:11:19.842Z,101180.95
2018-11-25T05:12:21.603Z,101182.63
2018-11-25T05:13:23.360Z,101180.41
2018-11-25T05:14:25.116Z,101185.08
2018-11-25T05:15:26.899Z,101176.35
2018-11-25T05:16:28.681Z,101182.09
2018-11-25T05:17:30.451Z,101185.08
2018-11-25T05:18:32.203Z,101190.27
2018-11-25T05:19:33.969Z,101188.22
2018-11-25T05:20:35.728Z,101183.77
2018-11-25T05:21:37.508Z,101191.19
2018-11-25T05:22:41.033Z,101186.37
2018-11-25T05:23:42.791Z,101188.59
2018-11-25T05:24:44.551Z,101189.35
2018-11-25T05:25:47.716Z,101191.95
2018-11-25T05:26:49.498Z,101188.05
2018-11-25T05:27:51.843Z,101191.95
2018-11-25T05:28:53.583Z,101189.73
2018-11-25T05:29:55.368Z,101189.73
2018-11-25T05:30:57.139Z,101190.11
2018-11-25T05:31:58.926Z,101192.33
2018-11-25T05:33:02.136Z,101188.05
2018-11-25T05:34:03.915Z,101186.75
2018-11-25T05:35:05.676Z,101192.70
2018-11-25T05:36:07.457Z,101184.91
2018-11-25T05:37:09.228Z,101189.73
2018-11-25T05:38:10.993Z,101191.78
2018-11-25T05:39:12.756Z,101191.95
2018-11-25T05:40:14.518Z,101189.73
2018-11-25T05:41:16.279Z,101191.41
2018-11-25T05:42:18.061Z,101189.35
2018-11-25T05:43:19.832Z,101191.03
2018-11-25T05:44:21.594Z,101193.63
2018-11-25T05:45:24.785Z,101193.25
2018-11-25T05:46:26.549Z,101186.20
2018-11-25T05:47:28.750Z,101186.59
2018-11-25T05:48:30.510Z,101187.13
2018-11-25T05:49:36.817Z,101191.95
2018-11-25T05:50:34.082Z,101189.19
2018-11-25T05:51:35.839Z,101188.80
2018-11-25T05:52:37.650Z,101192.33
2018-11-25T05:53:39.399Z,101194.01
2018-11-25T05:54:41.147Z,101194.77
2018-11-25T05:55:42.908Z,101189.56
2018-11-25T05:56:44.660Z,101193.09
2018-11-25T05:57:46.449Z,101192.16
2018-11-25T05:58:48.296Z,101188.64
2018-11-25T05:59:50.049Z,101190.87
2018-11-25T06:00:51.816Z,101191.41
2018-11-25T06:01:53.646Z,101193.47
2018-11-25T06:02:55.430Z,101187.89
2018-11-25T06:03:57.186Z,101191.78
2018-11-25T06:04:58.951Z,101188.64
2018-11-25T06:06:00.696Z,101194.39
2018-11-25T06:07:02.477Z,101189.56
2018-11-25T06:08:04.268Z,101195.52
2018-11-25T06:09:06.029Z,101196.98
2018-11-25T06:10:07.786Z,101200.34
2018-11-25T06:11:09.545Z,101198.28
2018-11-25T06:12:12.794Z,101202.02
2018-11-25T06:13:15.724Z,101206.47
2018-11-25T06:14:17.481Z,101206.47
2018-11-25T06:15:19.248Z,101206.47
2018-11-25T06:16:21.010Z,101208.30
2018-11-25T06:17:22.778Z,101212.96
2018-11-25T06:18:24.548Z,101215.02
2018-11-25T06:19:26.299Z,101215.02
2018-11-25T06:20:28.064Z,101217.23
2018-11-25T06:21:29.838Z,101215.94
2018-11-25T06:22:31.617Z,101218.92
2018-11-25T06:23:33.414Z,101215.02
2018-11-25T06:24:35.671Z,101213.72
2018-11-25T06:25:37.427Z,101218.54
2018-11-25T06:26:39.185Z,101213.34
2018-11-25T06:27:40.952Z,101217.62
2018-11-25T06:28:42.744Z,101220.22
2018-11-25T06:29:44.504Z,101218.34
2018-11-25T06:30:46.292Z,101223.16
2018-11-25T06:31:48.056Z,101225.41
2018-11-25T06:32:49.816Z,101224.12
2018-11-25T06:33:52.226Z,101226.72
2018-11-25T06:34:54.006Z,101225.76
2018-11-25T06:35:55.765Z,101223.54
2018-11-25T06:36:57.520Z,101223.00
2018-11-25T06:37:59.324Z,101230.04
2018-11-25T06:39:01.850Z,101226.72
2018-11-25T06:40:03.615Z,101224.46
2018-11-25T06:41:05.375Z,101224.84
2018-11-25T06:42:07.138Z,101225.22
2018-11-25T06:43:08.901Z,101224.84
2018-11-25T06:44:10.710Z,101225.59
2018-11-25T06:45:12.463Z,101224.46
2018-11-25T06:46:14.233Z,101225.76
2018-11-25T06:47:16.011Z,101223.54
2018-11-25T06:48:17.781Z,101231.72
2018-11-25T06:49:19.565Z,101232.09
2018-11-25T06:50:21.320Z,101237.67
2018-11-25T06:51:24.460Z,101232.47
2018-11-25T06:52:26.209Z,101235.07
2018-11-25T06:53:27.962Z,101236.54
2018-11-25T06:54:30.972Z,101236.91
2018-11-25T06:55:32.765Z,101234.31
2018-11-25T06:56:34.522Z,101239.52
2018-11-25T06:57:36.282Z,101234.69
2018-11-25T06:58:38.046Z,101237.30
2018-11-25T06:59:39.826Z,101239.89
2018-11-25T07:00:42.951Z,101237.67
2018-11-25T07:01:44.725Z,101235.45
2018-11-25T07:02:46.467Z,101236.38
2018-11-25T07:03:48.223Z,101235.45
2018-11-25T07:04:50.021Z,101237.51
2018-11-25T07:05:51.786Z,101246.39
2018-11-25T07:06:53.559Z,101244.93
2018-11-25T07:07:55.331Z,101242.88
2018-11-25T07:08:57.151Z,101244.17
2018-11-25T07:09:58.927Z,101244.55
2018-11-25T07:11:00.683Z,101245.84
2018-11-25T07:12:02.455Z,101252.73
2018-11-25T07:13:04.217Z,101251.59
2018-11-25T07:14:05.979Z,101248.45
2018-11-25T07:15:07.773Z,101249.75
2018-11-25T07:16:09.551Z,101255.33
2018-11-25T07:17:11.325Z,101250.88
2018-11-25T07:18:13.092Z,101254.95
2018-11-25T07:19:14.862Z,101248.66
2018-11-25T07:20:16.649Z,101253.48
2018-11-25T07:21:18.420Z,101254.41
2018-11-25T07:22:20.184Z,101250.34
2018-11-25T07:23:23.105Z,101253.11
2018-11-25T07:24:24.935Z,101256.08
2018-11-25T07:25:26.724Z,101256.08
2018-11-25T07:26:28.475Z,101255.70
2018-11-25T07:27:30.223Z,101259.98
2018-11-25T07:28:32.001Z,101258.52
2018-11-25T07:29:33.755Z,101257.76
2018-11-25T07:30:35.555Z,101258.14
2018-11-25T07:31:37.319Z,101254.78
2018-11-25T07:32:39.093Z,101256.45
2018-11-25T07:33:40.885Z,101256.45
2018-11-25T07:34:43.177Z,101256.84
2018-11-25T07:35:44.964Z,101252.02
2018-11-25T07:36:46.721Z,101252.94
2018-11-25T07:37:48.485Z,101251.64
2018-11-25T07:38:50.252Z,101251.64
2018-11-25T07:39:52.023Z,101246.82
2018-11-25T07:40:53.804Z,101254.23
2018-11-25T07:41:55.569Z,101255.91
2018-11-25T07:42:57.339Z,101255.91
2018-11-25T07:43:59.118Z,101249.80
2018-11-25T07:45:02.141Z,101256.30
2018-11-25T07:46:03.936Z,101255.75
2018-11-25T07:47:05.702Z,101257.22
2018-11-25T07:48:07.468Z,101255.38
2018-11-25T07:49:09.235Z,101254.23
2018-11-25T07:50:10.999Z,101261.11
2018-11-25T07:51:12.787Z,101262.41
2018-11-25T07:52:14.548Z,101261.28
2018-11-25T07:53:17.287Z,101259.81
2018-11-25T07:54:19.080Z,101258.73
2018-11-25T07:55:21.926Z,101260.95
2018-11-25T07:56:23.743Z,101267.07
2018-11-25T07:57:25.493Z,101266.14
2018-11-25T07:58:27.252Z,101266.69
2018-11-25T07:59:29.021Z,101272.44
2018-11-25T08:00:30.801Z,101267.07
2018-11-25T08:01:32.597Z,101271.89
2018-11-25T08:02:41.175Z,101278.39
2018-11-25T08:03:36.177Z,101269.12
2018-11-25T08:04:37.959Z,101269.50
2018-11-25T08:05:39.708Z,101273.02
2018-11-25T08:06:41.497Z,101279.14
2018-11-25T08:07:43.279Z,101272.48
2018-11-25T08:08:46.248Z,101273.02
2018-11-25T08:09:48.032Z,101271.72
2018-11-25T08:10:52.508Z,101271.72
2018-11-25T08:11:54.360Z,101277.47
2018-11-25T08:12:56.577Z,101266.91
2018-11-25T08:13:57.937Z,101270.80
2018-11-25T08:14:59.718Z,101270.80
2018-11-25T08:16:01.485Z,101270.42
2018-11-25T08:17:03.296Z,101268.95
2018-11-25T08:18:06.532Z,101273.78
2018-11-25T08:19:08.304Z,101271.18
2018-11-25T08:20:10.052Z,101276.92
2018-11-25T08:21:11.819Z,101281.75
2018-11-25T08:22:13.618Z,101276.00
2018-11-25T08:23:15.674Z,101273.02
2018-11-25T08:24:17.209Z,101278.22
2018-11-25T08:25:18.999Z,101277.30
2018-11-25T08:26:20.770Z,101268.20
2018-11-25T08:27:22.558Z,101275.62
2018-11-25T08:28:24.318Z,101271.56
2018-11-25T08:29:26.081Z,101277.67
2018-11-25T08:30:27.881Z,101278.05
2018-11-25T08:31:29.664Z,101279.73
2018-11-25T08:32:31.476Z,101280.11
2018-11-25T08:33:33.237Z,101280.82
2018-11-25T08:34:35.012Z,101281.16
2018-11-25T08:35:36.772Z,101274.43
2018-11-25T08:36:38.628Z,101279.56
2018-11-25T08:37:40.389Z,101277.88
2018-11-25T08:38:42.154Z,101280.11
2018-11-25T08:39:43.925Z,101282.49
2018-11-25T08:40:46.091Z,101280.44
2018-11-25T08:41:47.878Z,101285.31
2018-11-25T08:42:49.677Z,101283.09
2018-11-25T08:43:51.437Z,101283.52
2018-11-25T08:44:54.105Z,101288.90
2018-11-25T08:45:55.849Z,101280.60
2018-11-25T08:46:57.613Z,101281.91
2018-11-25T08:47:59.414Z,101283.37
2018-11-25T08:49:01.190Z,101281.69
2018-11-25T08:50:02.952Z,101287.42
2018-11-25T08:51:04.724Z,101289.59
2018-11-25T08:52:06.498Z,101282.88
2018-11-25T08:53:08.310Z,101291.44
2018-11-25T08:54:10.088Z,101288.92
2018-11-25T08:55:11.860Z,101289.84
2018-11-25T08:56:13.626Z,101292.45
2018-11-25T08:57:15.402Z,101293.16
2018-11-25T08:58:19.126Z,101290.87
2018-11-25T08:59:20.898Z,101294.78
2018-11-25T09:00:22.670Z,101289.58
2018-11-25T09:01:24.445Z,101289.88
2018-11-25T09:02:26.214Z,101291.73
2018-11-25T09:03:28.018Z,101293.66
2018-11-25T09:04:29.779Z,101300.55
2018-11-25T09:05:38.159Z,101297.04
2018-11-25T09:06:39.954Z,101296.34
2018-11-25T09:07:41.738Z,101293.66
2018-11-25T09:08:43.528Z,101289.53
2018-11-25T09:09:45.351Z,101295.20
2018-11-25T09:10:47.144Z,101300.27
2018-11-25T09:11:48.921Z,101292.08
2018-11-25T09:12:55.744Z,101291.08
2018-11-25T09:13:52.518Z,101297.80
2018-11-25T09:14:54.280Z,101294.20
2018-11-25T09:15:56.051Z,101298.48
2018-11-25T09:16:57.817Z,101300.11
2018-11-25T09:17:59.574Z,101302.41
2018-11-25T09:19:01.400Z,101302.78
2018-11-25T09:20:03.167Z,101295.28
2018-11-25T09:21:04.936Z,101307.21
2018-11-25T09:22:06.734Z,101294.95
2018-11-25T09:23:08.507Z,101292.52
2018-11-25T09:24:10.300Z,101300.73
2018-11-25T09:25:12.083Z,101304.11
2018-11-25T09:26:13.850Z,101299.43
2018-11-25T09:27:15.628Z,101301.02
2018-11-25T09:28:17.417Z,101301.55
2018-11-25T09:29:19.222Z,101304.00
2018-11-25T09:30:21.001Z,101302.44
2018-11-25T09:31:22.798Z,101306.50
2018-11-25T09:32:24.569Z,101307.66
2018-11-25T09:33:26.317Z,101308.48
2018-11-25T09:34:28.148Z,101309.46
2018-11-25T09:35:29.917Z,101303.73
2018-11-25T09:36:31.691Z,101314.59
2018-11-25T09:37:33.748Z,101312.14
2018-11-25T09:38:35.527Z,101308.94
2018-11-25T09:39:37.311Z,101313.66
2018-11-25T09:40:39.103Z,101306.31
2018-11-25T09:41:40.873Z,101304.09
2018-11-25T09:42:42.630Z,101305.58
2018-11-25T09:43:44.563Z,101306.50
2018-11-25T09:44:46.370Z,101309.70
2018-11-25T09:45:48.163Z,101306.50
2018-11-25T09:46:49.970Z,101309.48
2018-11-25T09:47:51.721Z,101308.86
2018-11-25T09:48:53.483Z,101310.38
2018-11-25T09:49:55.666Z,101307.18
2018-11-25T09:50:57.446Z,101316.84
2018-11-25T09:51:59.208Z,101309.84
2018-11-25T09:53:00.993Z,101316.67
2018-11-25T09:54:02.750Z,101314.61
2018-11-25T09:55:04.533Z,101310.95
2018-11-25T09:56:06.285Z,101308.55
2018-11-25T09:57:08.211Z,101314.85
2018-11-25T09:58:09.972Z,101313.25
2018-11-25T09:59:11.730Z,101307.72
2018-11-25T10:00:13.520Z,101307.04
2018-11-25T10:01:15.297Z,101311.48
2018-11-25T10:02:17.076Z,101309.13
2018-11-25T10:03:18.855Z,101309.73
2018-11-25T10:04:20.615Z,101308.32
2018-11-25T10:05:22.416Z,101309.19
2018-11-25T10:06:24.195Z,101313.69
2018-11-25T10:07:25.970Z,101308.92
2018-11-25T10:08:27.725Z,101311.09
2018-11-25T10:09:29.487Z,101309.24
2018-11-25T10:10:31.291Z,101315.43
2018-11-25T10:11:33.065Z,101317.11
2018-11-25T10:12:34.846Z,101313.31
2018-11-25T10:13:36.617Z,101316.70
2018-11-25T10:14:38.386Z,101321.08
2018-11-25T10:15:40.732Z,101315.02
2018-11-25T10:16:42.860Z,101316.17
2018-11-25T10:17:44.634Z,101315.61
2018-11-25T10:18:46.402Z,101313.39
2018-11-25T10:19:48.178Z,101313.33
2018-11-25T10:20:49.981Z,101312.05
2018-11-25T10:21:51.770Z,101313.06
2018-11-25T10:22:53.566Z,101312.74
2018-11-25T10:23:55.347Z,101313.28
2018-11-25T10:24:57.112Z,101308.84
2018-11-25T10:25:58.922Z,101306.93
2018-11-25T10:27:00.706Z,101303.08
2018-11-25T10:28:02.473Z,101301.72
2018-11-25T10:29:04.236Z,101297.05
2018-11-25T10:30:06.002Z,101299.27
2018-11-25T10:31:07.798Z,101295.37
2018-11-25T10:32:10.242Z,101297.78
2018-11-25T10:33:12.017Z,101296.12
2018-11-25T10:34:13.789Z,101292.06
2018-11-25T10:35:15.580Z,101296.26
2018-11-25T10:36:20.138Z,101291.97
2018-11-25T10:37:21.917Z,101288.95
2018-11-25T10:38:23.685Z,101292.64
2018-11-25T10:39:25.451Z,101289.97
2018-11-25T10:40:27.224Z,101292.16
2018-11-25T10:41:29.026Z,101292.64
2018-11-25T10:42:31.027Z,101296.77
2018-11-25T10:43:33.658Z,101307.73
2018-11-25T10:44:35.417Z,101301.00
2018-11-25T10:45:37.204Z,101299.91
2018-11-25T10:46:39.021Z,101297.63
2018-11-25T10:47:40.778Z,101292.23
2018-11-25T10:48:42.537Z,101294.07
2018-11-25T10:49:44.551Z,101293.53
2018-11-25T10:50:51.059Z,101288.51
2018-11-25T10:51:48.560Z,101290.58
2018-11-25T10:52:50.364Z,101288.09
2018-11-25T10:53:52.128Z,101293.34
2018-11-25T10:54:53.895Z,101285.36
2018-11-25T10:55:55.659Z,101285.96
2018-11-25T10:56:57.444Z,101289.78
2018-11-25T10:58:00.271Z,101284.98
2018-11-25T10:59:02.048Z,101291.66
2018-11-25T11:00:03.983Z,101287.17
2018-11-25T11:01:11.161Z,101289.17
2018-11-25T11:02:19.483Z,101285.80
2018-11-25T11:03:26.873Z,101289.97
2018-11-25T11:04:34.152Z,101285.14
2018-11-25T11:05:41.417Z,101293.84
2018-11-25T11:07:49.734Z,101288.09
2018-11-25T11:08:51.505Z,101284.19
2018-11-25T11:09:54.079Z,101277.31
2018-11-25T11:10:55.849Z,101279.53
2018-11-25T11:11:57.609Z,101284.12
2018-11-25T11:12:59.411Z,101286.44
2018-11-25T11:14:01.194Z,101283.89
2018-11-25T11:15:02.963Z,101281.60
2018-11-25T11:16:04.718Z,101287.73
2018-11-25T11:17:06.492Z,101284.28
2018-11-25T11:18:09.103Z,101287.36
2018-11-25T11:19:10.878Z,101279.45
2018-11-25T11:20:12.668Z,101284.66
2018-11-25T11:21:15.335Z,101278.05
2018-11-25T11:22:17.785Z,101277.54
2018-11-25T11:23:19.556Z,101277.38
2018-11-25T11:24:21.335Z,101277.98
2018-11-25T11:25:23.116Z,101280.52
2018-11-25T11:26:24.902Z,101277.28
2018-11-25T11:27:26.662Z,101276.01
2018-11-25T11:28:28.449Z,101283.52
2018-11-25T11:29:30.228Z,101282.33
2018-11-25T11:30:32.004Z,101280.05
2018-11-25T11:31:33.769Z,101288.63
2018-11-25T11:32:35.538Z,101281.95
2018-11-25T11:33:37.364Z,101285.73
2018-11-25T11:34:39.130Z,101285.33
2018-11-25T11:35:40.937Z,101286.11
2018-11-25T11:36:42.784Z,101281.45
2018-11-25T11:37:44.551Z,101282.89
2018-11-25T11:38:46.345Z,101282.48
2018-11-25T11:39:48.344Z,101283.95
2018-11-25T11:40:50.114Z,101280.58
2018-11-25T11:41:51.893Z,101285.41
2018-11-25T11:42:53.660Z,101280.52
2018-11-25T11:43:55.438Z,101282.20
2018-11-25T11:44:57.249Z,101282.20
2018-11-25T11:45:59.023Z,101271.98
2018-11-25T11:47:01.332Z,101277.42
2018-11-25T11:48:03.104Z,101281.70